sensor_id;sensor_type;location;lat;lon;timestamp;pressure;altitude;pressure_sealevel;temperature;humidity
14117;BME280;7137;51.436;6.544;2023-04-16T00:00:18;101607.91;;;8.72;100.00
14117;BME280;7137;51.436;6.544;2023-04-16T00:03:19;101607.88;;;8.76;100.00
14117;BME280;7137;51.436;6.544;2023-04-16T00:06:21;101609.63;;;8.71;100.00
14117;BME280;7137;51.436;6.544;2023-04-16T00:09:24;101616.50;;;8.80;100.00
14117;BME280;7137;51.436;6.544;2023-04-16T00:12:25;101614.88;;;8.70;100.00
14117;BME280;7137;51.436;6.544;2023-04-16T00:15:27;101611.44;;;8.66;100.00
14117;BME280;7137;51.436;6.544;2023-04-16T00:18:29;101606.31;;;8.55;100.00
14117;BME280;7137;51.436;6.544;2023-04-16T00:21:31;101608.91;;;8.57;100.00
14117;BME280;7137;51.436;6.544;2023-04-16T00:24:34;101607.91;;;8.72;100.00
14117;BME280;7137;51.436;6.544;2023-04-16T00:27:36;101613.13;;;8.73;100.00
14117;BME280;7137;51.436;6.544;2023-04-16T00:30:37;101615.66;;;8.78;100.00
14117;BME280;7137;51.436;6.544;2023-04-16T00:33:39;101619.06;;;8.87;100.00
14117;BME280;7137;51.436;6.544;2023-04-16T00:36:40;101612.09;;;8.86;100.00
14117;BME280;7137;51.436;6.544;2023-04-16T00:39:43;101609.56;;;8.80;100.00
14117;BME280;7137;51.436;6.544;2023-04-16T00:42:45;101613.22;;;8.61;100.00
14117;BME280;7137;51.436;6.544;2023-04-16T00:45:47;101614.03;;;8.66;100.00
14117;BME280;7137;51.436;6.544;2023-04-16T00:48:49;101613.13;;;8.69;100.00
14117;BME280;7137;51.436;6.544;2023-04-16T00:51:51;101608.81;;;8.66;100.00
14117;BME280;7137;51.436;6.544;2023-04-16T00:54:54;101608.91;;;8.60;100.00
14117;BME280;7137;51.436;6.544;2023-04-16T00:57:56;101613.25;;;8.59;100.00
14117;BME280;7137;51.436;6.544;2023-04-16T01:00:58;101607.91;;;8.72;100.00
14117;BME280;7137;51.436;6.544;2023-04-16T01:03:59;101620.16;;;8.62;100.00
14117;BME280;7137;51.436;6.544;2023-04-16T01:07:01;101616.69;;;8.63;100.00
14117;BME280;7137;51.436;6.544;2023-04-16T01:10:05;101626.16;;;8.69;100.00
14117;BME280;7137;51.436;6.544;2023-04-16T01:13:06;101623.59;;;8.64;100.00
14117;BME280;7137;51.436;6.544;2023-04-16T01:16:10;101631.44;;;8.61;100.00
14117;BME280;7137;51.436;6.544;2023-04-16T01:19:11;101627.13;;;8.57;100.00
14117;BME280;7137;51.436;6.544;2023-04-16T01:22:14;101637.59;;;8.51;100.00
14117;BME280;7137;51.436;6.544;2023-04-16T01:29:13;101635.75;;;8.65;100.00
14117;BME280;7137;51.436;6.544;2023-04-16T01:32:14;101635.72;;;8.68;100.00
14117;BME280;7137;51.436;6.544;2023-04-16T01:39:13;101639.31;;;8.55;100.00
14117;BME280;7137;51.436;6.544;2023-04-16T01:42:15;101628.00;;;8.59;100.00
14117;BME280;7137;51.436;6.544;2023-04-16T01:45:17;101634.81;;;8.72;100.00
14117;BME280;7137;51.436;6.544;2023-04-16T01:48:18;101636.59;;;8.66;100.00
14117;BME280;7137;51.436;6.544;2023-04-16T01:51:20;101633.09;;;8.70;100.00
14117;BME280;7137;51.436;6.544;2023-04-16T01:54:23;101638.28;;;8.71;100.00
14117;BME280;7137;51.436;6.544;2023-04-16T01:57:25;101633.84;;;8.82;100.00
14117;BME280;7137;51.436;6.544;2023-04-16T02:00:26;101626.06;;;8.81;100.00
14117;BME280;7137;51.436;6.544;2023-04-16T02:03:29;101637.44;;;8.71;100.00
14117;BME280;7137;51.436;6.544;2023-04-16T02:06:31;101634.00;;;8.67;100.00
14117;BME280;7137;51.436;6.544;2023-04-16T02:09:35;101631.34;;;8.72;100.00
14117;BME280;7137;51.436;6.544;2023-04-16T02:12:36;101632.97;;;8.83;100.00
14117;BME280;7137;51.436;6.544;2023-04-16T02:15:38;101634.72;;;8.81;100.00
14117;BME280;7137;51.436;6.544;2023-04-16T02:18:40;101628.63;;;8.84;100.00
14117;BME280;7137;51.436;6.544;2023-04-16T02:21:41;101627.72;;;8.89;100.00
14117;BME280;7137;51.436;6.544;2023-04-16T02:24:44;101627.69;;;8.91;100.00
14117;BME280;7137;51.436;6.544;2023-04-16T02:27:46;101620.69;;;8.96;100.00
14117;BME280;7137;51.436;6.544;2023-04-16T02:30:47;101622.53;;;8.83;100.00
14117;BME280;7137;51.436;6.544;2023-04-16T02:33:49;101621.72;;;8.81;100.00
14117;BME280;7137;51.436;6.544;2023-04-16T02:36:50;101627.78;;;8.80;100.00
14117;BME280;7137;51.436;6.544;2023-04-16T02:39:54;101633.03;;;8.77;100.00
14117;BME280;7137;51.436;6.544;2023-04-16T02:42:57;101631.34;;;8.73;100.00
14117;BME280;7137;51.436;6.544;2023-04-16T02:45:58;101628.63;;;8.82;100.00
14117;BME280;7137;51.436;6.544;2023-04-16T02:49:00;101630.34;;;8.88;100.00
14117;BME280;7137;51.436;6.544;2023-04-16T02:52:02;101633.81;;;8.85;100.00
14117;BME280;7137;51.436;6.544;2023-04-16T02:55:05;101636.44;;;8.84;100.00
14117;BME280;7137;51.436;6.544;2023-04-16T02:58:07;101638.97;;;8.93;100.00
14117;BME280;7137;51.436;6.544;2023-04-16T03:01:08;101645.88;;;8.96;100.00
14117;BME280;7137;51.436;6.544;2023-04-16T03:04:10;101643.28;;;8.96;100.00
14117;BME280;7137;51.436;6.544;2023-04-16T03:07:11;101638.91;;;8.98;100.00
14117;BME280;7137;51.436;6.544;2023-04-16T03:10:14;101636.34;;;8.95;100.00
14117;BME280;7137;51.436;6.544;2023-04-16T03:13:16;101646.03;;;8.80;100.00
14117;BME280;7137;51.436;6.544;2023-04-16T03:16:17;101643.47;;;8.77;100.00
14117;BME280;7137;51.436;6.544;2023-04-16T03:19:19;101644.34;;;8.76;100.00
14117;BME280;7137;51.436;6.544;2023-04-16T03:22:20;101647.81;;;8.77;100.00
14117;BME280;7137;51.436;6.544;2023-04-16T03:25:23;101651.31;;;8.73;100.00
14117;BME280;7137;51.436;6.544;2023-04-16T03:28:25;101652.97;;;8.81;100.00
14117;BME280;7137;51.436;6.544;2023-04-16T03:31:26;101651.28;;;8.76;100.00
14117;BME280;7137;51.436;6.544;2023-04-16T03:34:28;101653.81;;;8.83;100.00
14117;BME280;7137;51.436;6.544;2023-04-16T03:37:29;101657.19;;;8.95;100.00
14117;BME280;7137;51.436;6.544;2023-04-16T03:40:32;101652.13;;;8.78;100.00
14117;BME280;7137;51.436;6.544;2023-04-16T03:43:34;101653.94;;;8.73;100.00
14117;BME280;7137;51.436;6.544;2023-04-16T03:46:35;101649.50;;;8.79;100.00
14117;BME280;7137;51.436;6.544;2023-04-16T03:49:37;101655.66;;;8.71;100.00
14117;BME280;7137;51.436;6.544;2023-04-16T03:52:39;101654.84;;;8.66;100.00
14117;BME280;7137;51.436;6.544;2023-04-16T03:55:41;101654.00;;;8.63;100.00
14117;BME280;7137;51.436;6.544;2023-04-16T03:58:43;101660.00;;;8.69;100.00
14117;BME280;7137;51.436;6.544;2023-04-16T04:01:45;101657.38;;;8.75;100.00
14117;BME280;7137;51.436;6.544;2023-04-16T04:04:46;101654.78;;;8.72;100.00
14117;BME280;7137;51.436;6.544;2023-04-16T04:07:48;101656.53;;;8.70;100.00
14117;BME280;7137;51.436;6.544;2023-04-16T04:10:51;101662.69;;;8.62;100.00
14117;BME280;7137;51.436;6.544;2023-04-16T04:13:52;101659.22;;;8.62;100.00
14117;BME280;7137;51.436;6.544;2023-04-16T04:16:54;101652.22;;;8.67;100.00
14117;BME280;7137;51.436;6.544;2023-04-16T04:19:55;101662.63;;;8.67;100.00
14117;BME280;7137;51.436;6.544;2023-04-16T04:22:57;101659.13;;;8.70;100.00
14117;BME280;7137;51.436;6.544;2023-04-16T04:26:00;101661.72;;;8.71;100.00
14117;BME280;7137;51.436;6.544;2023-04-16T04:29:03;101663.41;;;8.78;100.00
14117;BME280;7137;51.436;6.544;2023-04-16T04:32:04;101671.25;;;8.72;100.00
14117;BME280;7137;51.436;6.544;2023-04-16T04:35:07;101672.94;;;8.82;100.00
14117;BME280;7137;51.436;6.544;2023-04-16T04:38:08;101679.06;;;8.78;100.00
14117;BME280;7137;51.436;6.544;2023-04-16T04:41:11;101676.41;;;8.81;100.00
14117;BME280;7137;51.436;6.544;2023-04-16T04:44:13;101681.63;;;8.80;100.00
14117;BME280;7137;51.436;6.544;2023-04-16T04:47:15;101681.63;;;8.81;100.00
14117;BME280;7137;51.436;6.544;2023-04-16T04:50:16;101684.22;;;8.83;100.00
14117;BME280;7137;51.436;6.544;2023-04-16T04:53:18;101686.66;;;9.01;100.00
14117;BME280;7137;51.436;6.544;2023-04-16T04:56:21;101687.59;;;8.92;100.00
14117;BME280;7137;51.436;6.544;2023-04-16T04:59:23;101684.16;;;8.89;100.00
14117;BME280;7137;51.436;6.544;2023-04-16T05:02:24;101685.03;;;8.89;100.00
14117;BME280;7137;51.436;6.544;2023-04-16T05:05:26;101688.47;;;8.93;100.00
14117;BME280;7137;51.436;6.544;2023-04-16T05:08:27;101699.72;;;8.97;100.00
14117;BME280;7137;51.436;6.544;2023-04-16T05:11:32;101702.28;;;9.04;100.00
14117;BME280;7137;51.436;6.544;2023-04-16T05:14:34;101701.56;;;8.88;100.00
14117;BME280;7137;51.436;6.544;2023-04-16T05:17:36;101705.00;;;8.90;100.00
14117;BME280;7137;51.436;6.544;2023-04-16T05:20:37;101712.72;;;9.00;100.00
14117;BME280;7137;51.436;6.544;2023-04-16T05:23:39;101713.63;;;8.96;100.00
14117;BME280;7137;51.436;6.544;2023-04-16T05:26:42;101709.25;;;8.99;100.00
14117;BME280;7137;51.436;6.544;2023-04-16T05:29:44;101718.78;;;9.00;100.00
14117;BME280;7137;51.436;6.544;2023-04-16T05:32:45;101725.81;;;8.93;100.00
14117;BME280;7137;51.436;6.544;2023-04-16T05:35:47;101735.31;;;8.99;100.00
14117;BME280;7137;51.436;6.544;2023-04-16T05:38:49;101724.94;;;8.95;100.00
14117;BME280;7137;51.436;6.544;2023-04-16T05:41:52;101727.59;;;8.90;100.00
14117;BME280;7137;51.436;6.544;2023-04-16T05:44:53;101728.47;;;8.84;100.00
14117;BME280;7137;51.436;6.544;2023-04-16T05:47:55;101735.44;;;8.87;100.00
14117;BME280;7137;51.436;6.544;2023-04-16T05:50:56;101731.97;;;8.83;100.00
14117;BME280;7137;51.436;6.544;2023-04-16T05:53:58;101734.56;;;8.83;100.00
14117;BME280;7137;51.436;6.544;2023-04-16T05:57:01;101742.38;;;8.83;100.00
14117;BME280;7137;51.436;6.544;2023-04-16T06:00:03;101748.34;;;9.02;100.00
14117;BME280;7137;51.436;6.544;2023-04-16T06:03:05;101747.47;;;9.02;100.00
14117;BME280;7137;51.436;6.544;2023-04-16T06:06:06;101763.88;;;9.11;100.00
14117;BME280;7137;51.436;6.544;2023-04-16T06:09:09;101752.56;;;9.17;100.00
14117;BME280;7137;51.436;6.544;2023-04-16T06:12:12;101762.97;;;9.14;100.00
14117;BME280;7137;51.436;6.544;2023-04-16T06:15:13;101768.94;;;9.31;100.00
14117;BME280;7137;51.436;6.544;2023-04-16T06:18:15;101763.81;;;9.19;100.00
14117;BME280;7137;51.436;6.544;2023-04-16T06:21:16;101769.00;;;9.22;100.00
14117;BME280;7137;51.436;6.544;2023-04-16T06:24:18;101772.50;;;9.21;100.00
14117;BME280;7137;51.436;6.544;2023-04-16T06:27:21;101776.13;;;9.03;100.00
14117;BME280;7137;51.436;6.544;2023-04-16T06:30:23;101778.50;;;9.29;100.00
14117;BME280;7137;51.436;6.544;2023-04-16T06:33:25;101777.53;;;9.38;100.00
14117;BME280;7137;51.436;6.544;2023-04-16T06:36:26;101776.78;;;9.27;100.00
14117;BME280;7137;51.436;6.544;2023-04-16T06:39:28;101776.69;;;9.37;100.00
14117;BME280;7137;51.436;6.544;2023-04-16T06:42:31;101784.53;;;9.34;100.00
14117;BME280;7137;51.436;6.544;2023-04-16T06:45:33;101787.91;;;9.45;100.00
14117;BME280;7137;51.436;6.544;2023-04-16T06:48:35;101787.03;;;9.48;100.00
14117;BME280;7137;51.436;6.544;2023-04-16T06:51:36;101794.88;;;9.46;100.00
14117;BME280;7137;51.436;6.544;2023-04-16T06:54:38;101786.94;;;9.57;100.00
14117;BME280;7137;51.436;6.544;2023-04-16T06:57:41;101794.66;;;9.66;100.00
14117;BME280;7137;51.436;6.544;2023-04-16T07:00:42;101795.47;;;9.70;100.00
14117;BME280;7137;51.436;6.544;2023-04-16T07:03:44;101785.81;;;9.81;100.00
14117;BME280;7137;51.436;6.544;2023-04-16T07:06:45;101793.78;;;9.67;100.00
14117;BME280;7137;51.436;6.544;2023-04-16T07:09:47;101800.69;;;9.70;100.00
14117;BME280;7137;51.436;6.544;2023-04-16T07:12:50;101795.50;;;9.71;100.00
14117;BME280;7137;51.436;6.544;2023-04-16T07:15:52;101800.72;;;9.71;100.00
14117;BME280;7137;51.436;6.544;2023-04-16T07:18:53;101805.88;;;9.76;100.00
14117;BME280;7137;51.436;6.544;2023-04-16T07:21:55;101799.03;;;9.63;100.00
14117;BME280;7137;51.436;6.544;2023-04-16T07:24:56;101804.28;;;9.61;100.00
14117;BME280;7137;51.436;6.544;2023-04-16T07:27:59;101811.19;;;9.65;100.00
14117;BME280;7137;51.436;6.544;2023-04-16T07:31:01;101805.97;;;9.65;100.00
14117;BME280;7137;51.436;6.544;2023-04-16T07:34:03;101804.19;;;9.72;100.00
14117;BME280;7137;51.436;6.544;2023-04-16T07:37:04;101811.16;;;9.71;100.00
14117;BME280;7137;51.436;6.544;2023-04-16T07:40:07;101808.34;;;9.90;100.00
14117;BME280;7137;51.436;6.544;2023-04-16T07:43:10;101816.13;;;9.93;100.00
14117;BME280;7137;51.436;6.544;2023-04-16T07:50:04;101819.16;;;10.34;100.00
14117;BME280;7137;51.436;6.544;2023-04-16T07:53:06;101831.84;;;10.62;100.00
14117;BME280;7137;51.436;6.544;2023-04-16T07:56:07;101829.97;;;10.72;99.91
14117;BME280;7137;51.436;6.544;2023-04-16T07:59:10;101834.16;;;10.85;98.63
14117;BME280;7137;51.436;6.544;2023-04-16T08:02:14;101831.00;;;11.18;97.71
14117;BME280;7137;51.436;6.544;2023-04-16T08:05:16;101834.75;;;11.02;96.38
14117;BME280;7137;51.436;6.544;2023-04-16T08:08:17;101844.44;;;10.94;97.61
14117;BME280;7137;51.436;6.544;2023-04-16T08:11:19;101844.91;;;11.20;96.98
14117;BME280;7137;51.436;6.544;2023-04-16T08:14:21;101847.19;;;10.86;96.43
14117;BME280;7137;51.436;6.544;2023-04-16T08:17:23;101851.63;;;10.80;96.79
14117;BME280;7137;51.436;6.544;2023-04-16T08:20:25;101845.59;;;10.76;97.58
14117;BME280;7137;51.436;6.544;2023-04-16T08:23:26;101856.13;;;10.72;97.35
14117;BME280;7137;51.436;6.544;2023-04-16T08:26:28;101861.34;;;10.68;96.37
14117;BME280;7137;51.436;6.544;2023-04-16T08:29:32;101864.72;;;10.78;95.88
14117;BME280;7137;51.436;6.544;2023-04-16T08:32:34;101868.13;;;10.83;95.03
14117;BME280;7137;51.436;6.544;2023-04-16T08:35:35;101859.50;;;10.78;94.22
14117;BME280;7137;51.436;6.544;2023-04-16T08:38:37;101863.09;;;10.71;93.95
14117;BME280;7137;51.436;6.544;2023-04-16T08:41:40;101874.50;;;10.62;93.86
14117;BME280;7137;51.436;6.544;2023-04-16T08:44:47;101870.06;;;10.67;95.26
14117;BME280;7137;51.436;6.544;2023-04-16T08:47:50;101876.75;;;10.90;95.00
14117;BME280;7137;51.436;6.544;2023-04-16T08:50:52;101875.59;;;11.09;92.58
14117;BME280;7137;51.436;6.544;2023-04-16T08:54:02;101878.63;;;11.39;91.73
14117;BME280;7137;51.436;6.544;2023-04-16T08:57:05;101888.53;;;11.74;89.57
14117;BME280;7137;51.436;6.544;2023-04-16T09:00:10;101889.09;;;12.37;88.39
14117;BME280;7137;51.436;6.544;2023-04-16T09:03:12;101894.59;;;12.24;84.97
14117;BME280;7137;51.436;6.544;2023-04-16T09:06:14;101892.94;;;12.19;86.70
14117;BME280;7137;51.436;6.544;2023-04-16T09:09:16;101893.94;;;12.14;86.84
14117;BME280;7137;51.436;6.544;2023-04-16T09:12:18;101899.38;;;12.03;88.25
14117;BME280;7137;51.436;6.544;2023-04-16T09:15:24;101892.47;;;11.99;88.45
14117;BME280;7137;51.436;6.544;2023-04-16T09:18:26;101894.53;;;12.28;87.27
14117;BME280;7137;51.436;6.544;2023-04-16T09:21:28;101895.44;;;12.70;86.09
14117;BME280;7137;51.436;6.544;2023-04-16T09:24:32;101894.25;;;12.42;86.59
14117;BME280;7137;51.436;6.544;2023-04-16T09:27:35;101903.72;;;12.49;85.84
14117;BME280;7137;51.436;6.544;2023-04-16T09:30:38;101897.06;;;12.74;83.92
14117;BME280;7137;51.436;6.544;2023-04-16T09:33:40;101902.31;;;13.15;81.49
14117;BME280;7137;51.436;6.544;2023-04-16T09:36:43;101896.19;;;13.53;80.37
14117;BME280;7137;51.436;6.544;2023-04-16T09:39:52;101911.72;;;13.25;81.17
14117;BME280;7137;51.436;6.544;2023-04-16T09:42:56;101904.19;;;13.10;81.68
14117;BME280;7137;51.436;6.544;2023-04-16T09:46:03;101913.22;;;13.35;81.68
14117;BME280;7137;51.436;6.544;2023-04-16T09:49:07;101915.44;;;13.15;82.53
14117;BME280;7137;51.436;6.544;2023-04-16T09:52:11;101915.72;;;13.01;82.55
14117;BME280;7137;51.436;6.544;2023-04-16T09:55:13;101910.50;;;13.01;82.32
14117;BME280;7137;51.436;6.544;2023-04-16T09:58:17;101914.88;;;14.41;78.52
14117;BME280;7137;51.436;6.544;2023-04-16T10:01:20;101908.34;;;14.85;73.75
14117;BME280;7137;51.436;6.544;2023-04-16T10:04:21;101912.84;;;14.82;73.52
14117;BME280;7137;51.436;6.544;2023-04-16T10:07:27;101917.34;;;14.78;73.77
14117;BME280;7137;51.436;6.544;2023-04-16T10:10:29;101910.69;;;15.51;69.65
14117;BME280;7137;51.436;6.544;2023-04-16T10:13:31;101906.44;;;16.24;67.50
14117;BME280;7137;51.436;6.544;2023-04-16T10:16:33;101917.00;;;15.73;68.86
14117;BME280;7137;51.436;6.544;2023-04-16T10:19:35;101915.13;;;14.94;71.77
14117;BME280;7137;51.436;6.544;2023-04-16T10:22:37;101910.41;;;14.45;73.02
14117;BME280;7137;51.436;6.544;2023-04-16T10:25:39;101915.28;;;14.26;71.68
14117;BME280;7137;51.436;6.544;2023-04-16T10:28:44;101910.41;;;14.43;73.05
14117;BME280;7137;51.436;6.544;2023-04-16T10:31:47;101914.72;;;14.47;73.13
14117;BME280;7137;51.436;6.544;2023-04-16T10:34:49;101913.25;;;14.68;71.43
14117;BME280;7137;51.436;6.544;2023-04-16T10:37:55;101917.22;;;14.52;71.74
14117;BME280;7137;51.436;6.544;2023-04-16T10:40:57;101916.84;;;15.23;68.59
14117;BME280;7137;51.436;6.544;2023-04-16T10:44:04;101911.91;;;15.40;68.48
14117;BME280;7137;51.436;6.544;2023-04-16T10:47:10;101908.19;;;14.90;70.59
14117;BME280;7137;51.436;6.544;2023-04-16T10:50:14;101910.31;;;14.79;69.48
14117;BME280;7137;51.436;6.544;2023-04-16T10:53:17;101904.44;;;14.69;69.76
14117;BME280;7137;51.436;6.544;2023-04-16T10:56:22;101915.34;;;15.42;68.98
14117;BME280;7137;51.436;6.544;2023-04-16T10:59:28;101911.94;;;15.39;65.75
14117;BME280;7137;51.436;6.544;2023-04-16T11:02:31;101904.28;;;15.31;65.95
14117;BME280;7137;51.436;6.544;2023-04-16T11:05:44;101904.84;;;15.41;67.81
14117;BME280;7137;51.436;6.544;2023-04-16T11:08:47;101901.53;;;15.36;66.20
14117;BME280;7137;51.436;6.544;2023-04-16T11:11:51;101901.03;;;14.95;68.59
14117;BME280;7137;51.436;6.544;2023-04-16T11:14:57;101898.31;;;14.98;66.25
14117;BME280;7137;51.436;6.544;2023-04-16T11:18:01;101899.53;;;15.42;64.24
14117;BME280;7137;51.436;6.544;2023-04-16T11:21:06;101907.25;;;15.75;63.79
14117;BME280;7137;51.436;6.544;2023-04-16T11:24:11;101906.59;;;15.14;64.18
14117;BME280;7137;51.436;6.544;2023-04-16T11:27:13;101913.28;;;14.96;67.87
14117;BME280;7137;51.436;6.544;2023-04-16T11:30:15;101896.28;;;15.08;67.21
14117;BME280;7137;51.436;6.544;2023-04-16T11:33:19;101899.31;;;15.50;65.69
14117;BME280;7137;51.436;6.544;2023-04-16T11:36:20;101901.75;;;16.08;65.59
14117;BME280;7137;51.436;6.544;2023-04-16T11:39:22;101903.34;;;16.37;62.60
14117;BME280;7137;51.436;6.544;2023-04-16T11:42:23;101903.59;;;16.06;64.42
14117;BME280;7137;51.436;6.544;2023-04-16T11:45:26;101907.25;;;15.75;63.89
14117;BME280;7137;51.436;6.544;2023-04-16T11:48:46;101905.59;;;15.72;65.99
14117;BME280;7137;51.436;6.544;2023-04-16T11:51:48;101910.28;;;15.89;63.63
14117;BME280;7137;51.436;6.544;2023-04-16T11:54:49;101907.66;;;15.89;65.07
14117;BME280;7137;51.436;6.544;2023-04-16T11:57:51;101910.28;;;15.64;65.71
14117;BME280;7137;51.436;6.544;2023-04-16T12:00:53;101908.28;;;15.71;63.33
14117;BME280;7137;51.436;6.544;2023-04-16T12:04:01;101914.13;;;16.06;64.59
14117;BME280;7137;51.436;6.544;2023-04-16T12:07:04;101911.78;;;15.43;64.58
14117;BME280;7137;51.436;6.544;2023-04-16T12:10:07;101914.91;;;15.28;67.42
14117;BME280;7137;51.436;6.544;2023-04-16T12:13:10;101913.25;;;15.26;66.33
14117;BME280;7137;51.436;6.544;2023-04-16T12:16:17;101910.06;;;15.70;64.34
14117;BME280;7137;51.436;6.544;2023-04-16T12:19:21;101921.50;;;16.21;64.69
14117;BME280;7137;51.436;6.544;2023-04-16T12:22:29;101910.56;;;16.31;62.80
14117;BME280;7137;51.436;6.544;2023-04-16T12:25:31;101916.59;;;16.35;65.04
14117;BME280;7137;51.436;6.544;2023-04-16T12:28:35;101913.91;;;16.12;63.46
14117;BME280;7137;51.436;6.544;2023-04-16T12:31:37;101913.34;;;16.02;63.50
14117;BME280;7137;51.436;6.544;2023-04-16T12:34:50;101910.91;;;16.22;61.72
14117;BME280;7137;51.436;6.544;2023-04-16T12:37:51;101916.22;;;15.96;63.34
14117;BME280;7137;51.436;6.544;2023-04-16T12:40:53;101911.03;;;16.19;64.41
14117;BME280;7137;51.436;6.544;2023-04-16T12:44:02;101915.13;;;16.75;62.39
14117;BME280;7137;51.436;6.544;2023-04-16T12:47:04;101920.22;;;16.56;62.00
14117;BME280;7137;51.436;6.544;2023-04-16T12:50:08;101915.53;;;16.64;62.40
14117;BME280;7137;51.436;6.544;2023-04-16T12:53:10;101917.44;;;16.84;60.35
14117;BME280;7137;51.436;6.544;2023-04-16T12:56:11;101919.69;;;16.71;62.09
14117;BME280;7137;51.436;6.544;2023-04-16T12:59:13;101914.38;;;16.95;60.80
14117;BME280;7137;51.436;6.544;2023-04-16T13:02:16;101913.53;;;16.22;60.84
14117;BME280;7137;51.436;6.544;2023-04-16T13:05:19;101902.25;;;16.90;60.43
14117;BME280;7137;51.436;6.544;2023-04-16T13:08:20;101906.59;;;17.13;59.54
14117;BME280;7137;51.436;6.544;2023-04-16T13:11:22;101911.53;;;16.77;58.34
14117;BME280;7137;51.436;6.544;2023-04-16T13:14:23;101911.19;;;16.63;58.95
14117;BME280;7137;51.436;6.544;2023-04-16T13:17:25;101900.97;;;16.29;60.23
14117;BME280;7137;51.436;6.544;2023-04-16T13:20:28;101898.09;;;16.12;60.25
14117;BME280;7137;51.436;6.544;2023-04-16T13:23:29;101901.47;;;16.15;60.16
14117;BME280;7137;51.436;6.544;2023-04-16T13:26:31;101901.34;;;16.18;62.07
14117;BME280;7137;51.436;6.544;2023-04-16T13:29:33;101909.91;;;16.50;59.55
14117;BME280;7137;51.436;6.544;2023-04-16T13:32:35;101903.66;;;16.52;60.13
14117;BME280;7137;51.436;6.544;2023-04-16T13:35:38;101900.00;;;16.80;59.02
14117;BME280;7137;51.436;6.544;2023-04-16T13:38:40;101904.25;;;16.84;59.62
14117;BME280;7137;51.436;6.544;2023-04-16T13:41:42;101904.50;;;16.53;61.04
14117;BME280;7137;51.436;6.544;2023-04-16T13:44:43;101898.44;;;16.51;61.64
14117;BME280;7137;51.436;6.544;2023-04-16T13:47:48;101904.13;;;16.63;59.13
14117;BME280;7137;51.436;6.544;2023-04-16T13:50:51;101900.56;;;16.65;60.29
14117;BME280;7137;51.436;6.544;2023-04-16T13:53:52;101900.41;;;16.69;59.61
14117;BME280;7137;51.436;6.544;2023-04-16T13:56:54;101896.38;;;16.36;62.04
14117;BME280;7137;51.436;6.544;2023-04-16T13:59:56;101896.97;;;16.42;61.42
14117;BME280;7137;51.436;6.544;2023-04-16T14:02:58;101896.84;;;15.97;61.46
14117;BME280;7137;51.436;6.544;2023-04-16T14:06:01;101900.47;;;15.94;64.11
14117;BME280;7137;51.436;6.544;2023-04-16T14:09:02;101896.19;;;15.90;63.07
14117;BME280;7137;51.436;6.544;2023-04-16T14:12:04;101895.97;;;15.71;65.34
14117;BME280;7137;51.436;6.544;2023-04-16T14:15:06;101894.78;;;16.07;64.73
14117;BME280;7137;51.436;6.544;2023-04-16T14:18:08;101893.66;;;15.87;62.37
14117;BME280;7137;51.436;6.544;2023-04-16T14:21:11;101894.38;;;15.67;63.30
14117;BME280;7137;51.436;6.544;2023-04-16T14:24:13;101897.13;;;15.36;65.21
14117;BME280;7137;51.436;6.544;2023-04-16T14:27:14;101888.78;;;15.50;64.06
14117;BME280;7137;51.436;6.544;2023-04-16T14:30:16;101890.84;;;15.40;65.83
14117;BME280;7137;51.436;6.544;2023-04-16T14:33:18;101892.84;;;15.59;63.55
14117;BME280;7137;51.436;6.544;2023-04-16T14:36:21;101895.13;;;16.21;64.13
14117;BME280;7137;51.436;6.544;2023-04-16T14:39:23;101893.97;;;16.53;61.15
14117;BME280;7137;51.436;6.544;2023-04-16T14:42:24;101904.41;;;16.08;61.50
14117;BME280;7137;51.436;6.544;2023-04-16T14:45:26;101903.31;;;16.13;63.81
14117;BME280;7137;51.436;6.544;2023-04-16T14:48:29;101897.75;;;15.71;62.32
14117;BME280;7137;51.436;6.544;2023-04-16T14:51:32;101894.56;;;15.61;64.26
14117;BME280;7137;51.436;6.544;2023-04-16T14:54:34;101891.94;;;15.86;63.00
14117;BME280;7137;51.436;6.544;2023-04-16T14:57:36;101893.50;;;16.17;64.18
14117;BME280;7137;51.436;6.544;2023-04-16T15:00:38;101888.59;;;16.31;60.97
14117;BME280;7137;51.436;6.544;2023-04-16T15:03:39;101890.72;;;16.70;60.84
14117;BME280;7137;51.436;6.544;2023-04-16T15:06:43;101884.53;;;16.46;60.67
14117;BME280;7137;51.436;6.544;2023-04-16T15:09:45;101887.97;;;16.24;64.37
14117;BME280;7137;51.436;6.544;2023-04-16T15:12:46;101889.34;;;15.58;67.81
14117;BME280;7137;51.436;6.544;2023-04-16T15:15:48;101881.09;;;15.42;70.14
14117;BME280;7137;51.436;6.544;2023-04-16T15:18:50;101874.56;;;15.28;70.13
14117;BME280;7137;51.436;6.544;2023-04-16T15:21:53;101884.88;;;14.79;71.71
14117;BME280;7137;51.436;6.544;2023-04-16T15:24:55;101892.41;;;14.61;74.13
14117;BME280;7137;51.436;6.544;2023-04-16T15:27:57;101894.53;;;14.48;76.71
14117;BME280;7137;51.436;6.544;2023-04-16T15:30:58;101899.63;;;14.21;79.09
14117;BME280;7137;51.436;6.544;2023-04-16T15:34:00;101898.91;;;14.16;79.68
14117;BME280;7137;51.436;6.544;2023-04-16T15:37:03;101910.22;;;14.18;80.21
14117;BME280;7137;51.436;6.544;2023-04-16T15:40:06;101900.88;;;14.08;80.73
14117;BME280;7137;51.436;6.544;2023-04-16T15:43:07;101907.72;;;13.81;81.84
14117;BME280;7137;51.436;6.544;2023-04-16T15:46:09;101907.91;;;13.74;81.84
14117;BME280;7137;51.436;6.544;2023-04-16T15:49:11;101916.00;;;13.66;84.35
14117;BME280;7137;51.436;6.544;2023-04-16T15:52:14;101917.97;;;13.56;85.89
14117;BME280;7137;51.436;6.544;2023-04-16T15:55:16;101920.59;;;13.56;89.04
14117;BME280;7137;51.436;6.544;2023-04-16T15:58:18;101919.34;;;13.35;91.50
14117;BME280;7137;51.436;6.544;2023-04-16T16:01:20;101931.44;;;13.43;91.76
14117;BME280;7137;51.436;6.544;2023-04-16T16:04:21;101932.69;;;13.26;93.49
14117;BME280;7137;51.436;6.544;2023-04-16T16:07:26;101919.97;;;13.06;95.54
14117;BME280;7137;51.436;6.544;2023-04-16T16:10:28;101919.38;;;12.94;97.66
14117;BME280;7137;51.436;6.544;2023-04-16T16:13:29;101917.91;;;12.81;99.85
14117;BME280;7137;51.436;6.544;2023-04-16T16:16:31;101912.41;;;12.51;99.21